Bay Hills, New York
Current Conditions -  °F | °C
As of 10:53 PM on Tuesday 27 Jan 2015 (Local Time) from KFRG Reporting Station
Clear Clear  
Wind Chill:   Ceiling: Unl
Heat Index: 19°   Visibility: 10mi
Dew Point:   Wind: 13mph
Humidity: 62%   Direction: 330°NNW
Pressure: 29.81"   Gusts: NA
Location:  40.8966°N, 73.4362°W
Report Text: KFRG 280353Z AUTO 33011KT 10SM CLR M07/M13 A2981 RMK AO2 SLP097 T10721133 $
Loading
Personal Weather Stations






























Interactive Weather Map New forecast layout! Learn more

10-Day Weather Forecast

Advertisements
Track Severe Weather on mobile